الصفحة الرئيسية
METAR-TAF:

METAR-TAF

مطار :

Bullsbrook, أستراليا

دائرة عرض: 31-40S, خط طول: 116-01E, ارتفاع: 45 متر

مراقبة الطقس الحالي

تاريخ ووقت الإصدار 22 دقيقة قبل الساعة 11:30UTC
رياح هادئة
درجة الحرارة 11°درجة مئوية
الرطوبة 82%
ضغط 1027 hPa
الرؤية 10 كم أو أكثر
الغيوم لا تقل 1500 م ولا وجود لمزنة ركامية السحاب الأسود

METAR: YPEA 231130Z 00000KT CAVOK 11/08 Q1027

زمن: 19:52 (11:52 UTC)

توقعات

تاريخ ووقت الإصدار 26 دقيقة قبل الساعة 11:26UTC
التوقعات صالحة من23 الساعة 12 UTC إلى 24 الساعة 06 UTC
ريح 3 عقدةمن اتجاهات متغيرة
الرؤية 10 كم أو أكثر
غيوم قليلة على ارتفاع 4000 قدم
من 23 الساعة 1800 UTC
ريح 3 عقدة من الشرق
الرؤية 10 كم أو أكثر
الغيوم لا تقل 1500 م ولا وجود لمزنة ركامية السحاب الأسود
من 24 الساعة 0300 UTC
ريح 6 عقدة من الشرق
الرؤية 10 كم أو أكثر
غيوم متفرقة على ارتفاع 4000 قدم
نظرية الاحتمالات 30%
من 23 الساعة 18 UTC إلى 24 الساعة 00 UTC
الرؤية: 2000 متر
غيوم قليلة على ارتفاع 600 قدم
غشاء

TAF: YPEA 231126Z 2312/2406 VRB03KT 9999 FEW040 FM231800 10003KT CAVOK FM240300 08006KT 9999 SCT040 PROB30 2318/2400 2000 BR FEW006

أرصاد الطقس والتوقعات من أكثر من 4000 مطار (تقارير الطقس للمطار METAR والتنبؤ بالطقس بالمطارTAF).

المحطات المتاحة هي النقط الصفراء والحمراء على الخريطة.

حرك المؤشر فوق النقطة لمعرفة اسم المحطة.

ثم انقر لمعرفة أرصاد وتوقعات الطقس.

لتغيير الخارطة: اضغط على الأزرار الخضراء مع رمز الصليب الأسود للتكبير. على الزر الأخضر مع شرطة للتصغير، أو على الأسهم الخضراء للخرائط المجاورة.


METAR-TAF: